sensor_id;sensor_type;location;lat;lon;timestamp;P1;durP1;ratioP1;P2;durP2;ratioP2
55493;SDS011;41355;50.390;19.096;2022-07-18T00:00:31;5.63;;;1.42;;
55493;SDS011;41355;50.390;19.096;2022-07-18T00:02:57;4.75;;;1.67;;
55493;SDS011;41355;50.390;19.096;2022-07-18T00:05:23;3.50;;;1.38;;
55493;SDS011;41355;50.390;19.096;2022-07-18T00:07:49;3.80;;;1.52;;
55493;SDS011;41355;50.390;19.096;2022-07-18T00:10:15;3.65;;;1.40;;
55493;SDS011;41355;50.390;19.096;2022-07-18T00:12:41;4.13;;;1.60;;
55493;SDS011;41355;50.390;19.096;2022-07-18T00:15:07;5.40;;;1.48;;
55493;SDS011;41355;50.390;19.096;2022-07-18T00:17:35;4.60;;;1.35;;
55493;SDS011;41355;50.390;19.096;2022-07-18T00:20:01;6.07;;;1.52;;
55493;SDS011;41355;50.390;19.096;2022-07-18T00:22:27;4.07;;;1.40;;
55493;SDS011;41355;50.390;19.096;2022-07-18T00:24:53;8.05;;;2.08;;
55493;SDS011;41355;50.390;19.096;2022-07-18T00:27:19;4.75;;;1.67;;
55493;SDS011;41355;50.390;19.096;2022-07-18T00:29:45;6.28;;;1.60;;
55493;SDS011;41355;50.390;19.096;2022-07-18T00:32:11;4.70;;;1.63;;
55493;SDS011;41355;50.390;19.096;2022-07-18T00:34:37;2.72;;;1.30;;
55493;SDS011;41355;50.390;19.096;2022-07-18T00:37:04;4.28;;;1.80;;
55493;SDS011;41355;50.390;19.096;2022-07-18T00:39:30;4.57;;;1.52;;
55493;SDS011;41355;50.390;19.096;2022-07-18T00:41:56;4.47;;;1.58;;
55493;SDS011;41355;50.390;19.096;2022-07-18T00:44:25;4.97;;;1.65;;
55493;SDS011;41355;50.390;19.096;2022-07-18T00:46:53;4.40;;;1.48;;
55493;SDS011;41355;50.390;19.096;2022-07-18T00:49:20;3.50;;;1.20;;
55493;SDS011;41355;50.390;19.096;2022-07-18T00:51:46;6.38;;;1.63;;
55493;SDS011;41355;50.390;19.096;2022-07-18T00:54:12;5.47;;;1.40;;
55493;SDS011;41355;50.390;19.096;2022-07-18T00:56:38;4.05;;;1.23;;
55493;SDS011;41355;50.390;19.096;2022-07-18T00:59:04;4.72;;;1.58;;
55493;SDS011;41355;50.390;19.096;2022-07-18T01:01:30;3.65;;;1.42;;
55493;SDS011;41355;50.390;19.096;2022-07-18T01:04:11;3.78;;;1.40;;
55493;SDS011;41355;50.390;19.096;2022-07-18T01:06:38;4.50;;;1.70;;
55493;SDS011;41355;50.390;19.096;2022-07-18T01:09:04;4.18;;;1.70;;
55493;SDS011;41355;50.390;19.096;2022-07-18T01:11:31;5.30;;;1.73;;
55493;SDS011;41355;50.390;19.096;2022-07-18T01:13:57;6.47;;;2.17;;
55493;SDS011;41355;50.390;19.096;2022-07-18T01:16:23;4.90;;;1.90;;
55493;SDS011;41355;50.390;19.096;2022-07-18T01:18:50;6.93;;;2.08;;
55493;SDS011;41355;50.390;19.096;2022-07-18T01:21:16;5.18;;;1.92;;
55493;SDS011;41355;50.390;19.096;2022-07-18T01:23:43;9.40;;;2.33;;
55493;SDS011;41355;50.390;19.096;2022-07-18T01:26:09;6.55;;;2.50;;
55493;SDS011;41355;50.390;19.096;2022-07-18T01:28:36;7.30;;;2.78;;
55493;SDS011;41355;50.390;19.096;2022-07-18T01:31:02;9.40;;;2.13;;
55493;SDS011;41355;50.390;19.096;2022-07-18T01:33:30;4.97;;;1.92;;
55493;SDS011;41355;50.390;19.096;2022-07-18T01:35:57;4.90;;;1.73;;
55493;SDS011;41355;50.390;19.096;2022-07-18T01:38:24;6.22;;;1.70;;
55493;SDS011;41355;50.390;19.096;2022-07-18T01:40:50;5.30;;;2.00;;
55493;SDS011;41355;50.390;19.096;2022-07-18T01:43:16;5.50;;;2.13;;
55493;SDS011;41355;50.390;19.096;2022-07-18T01:45:42;6.93;;;2.42;;
55493;SDS011;41355;50.390;19.096;2022-07-18T01:48:08;4.72;;;2.10;;
55493;SDS011;41355;50.390;19.096;2022-07-18T01:50:34;4.30;;;1.90;;
55493;SDS011;41355;50.390;19.096;2022-07-18T01:53:00;5.70;;;2.20;;
55493;SDS011;41355;50.390;19.096;2022-07-18T01:55:26;6.38;;;2.38;;
55493;SDS011;41355;50.390;19.096;2022-07-18T01:57:52;5.22;;;2.08;;
55493;SDS011;41355;50.390;19.096;2022-07-18T02:00:18;9.32;;;2.50;;
55493;SDS011;41355;50.390;19.096;2022-07-18T02:02:44;6.15;;;2.40;;
55493;SDS011;41355;50.390;19.096;2022-07-18T02:05:10;7.85;;;2.90;;
55493;SDS011;41355;50.390;19.096;2022-07-18T02:07:37;6.85;;;2.75;;
55493;SDS011;41355;50.390;19.096;2022-07-18T02:10:07;6.85;;;2.75;;
55493;SDS011;41355;50.390;19.096;2022-07-18T02:12:33;8.25;;;2.60;;
55493;SDS011;41355;50.390;19.096;2022-07-18T02:14:59;4.82;;;2.28;;
55493;SDS011;41355;50.390;19.096;2022-07-18T02:17:25;5.60;;;2.20;;
55493;SDS011;41355;50.390;19.096;2022-07-18T02:19:51;5.93;;;1.90;;
55493;SDS011;41355;50.390;19.096;2022-07-18T02:22:17;7.30;;;2.60;;
55493;SDS011;41355;50.390;19.096;2022-07-18T02:24:43;7.45;;;2.90;;
55493;SDS011;41355;50.390;19.096;2022-07-18T02:27:09;6.50;;;3.03;;
55493;SDS011;41355;50.390;19.096;2022-07-18T02:29:36;6.03;;;2.83;;
55493;SDS011;41355;50.390;19.096;2022-07-18T02:32:02;6.90;;;2.75;;
55493;SDS011;41355;50.390;19.096;2022-07-18T02:34:28;7.63;;;2.70;;
55493;SDS011;41355;50.390;19.096;2022-07-18T02:36:54;7.10;;;2.70;;
55493;SDS011;41355;50.390;19.096;2022-07-18T02:39:20;7.97;;;2.75;;
55493;SDS011;41355;50.390;19.096;2022-07-18T02:41:46;8.60;;;2.47;;
55493;SDS011;41355;50.390;19.096;2022-07-18T02:44:12;6.70;;;2.35;;
55493;SDS011;41355;50.390;19.096;2022-07-18T02:46:39;4.75;;;2.33;;
55493;SDS011;41355;50.390;19.096;2022-07-18T02:49:05;6.20;;;2.35;;
55493;SDS011;41355;50.390;19.096;2022-07-18T02:51:31;6.25;;;2.80;;
55493;SDS011;41355;50.390;19.096;2022-07-18T02:53:57;7.82;;;2.30;;
55493;SDS011;41355;50.390;19.096;2022-07-18T02:56:23;6.18;;;2.55;;
55493;SDS011;41355;50.390;19.096;2022-07-18T02:58:49;6.50;;;2.65;;
55493;SDS011;41355;50.390;19.096;2022-07-18T03:01:15;6.78;;;2.75;;
55493;SDS011;41355;50.390;19.096;2022-07-18T03:03:41;7.05;;;2.97;;
55493;SDS011;41355;50.390;19.096;2022-07-18T03:06:07;9.63;;;3.20;;
55493;SDS011;41355;50.390;19.096;2022-07-18T03:08:33;9.60;;;2.92;;
55493;SDS011;41355;50.390;19.096;2022-07-18T03:10:59;9.65;;;3.40;;
55493;SDS011;41355;50.390;19.096;2022-07-18T03:13:25;8.43;;;2.80;;
55493;SDS011;41355;50.390;19.096;2022-07-18T03:15:51;7.93;;;2.92;;
55493;SDS011;41355;50.390;19.096;2022-07-18T03:18:17;7.43;;;2.78;;
55493;SDS011;41355;50.390;19.096;2022-07-18T03:20:43;8.23;;;3.20;;
55493;SDS011;41355;50.390;19.096;2022-07-18T03:23:09;7.45;;;3.00;;
55493;SDS011;41355;50.390;19.096;2022-07-18T03:25:35;8.48;;;3.42;;
55493;SDS011;41355;50.390;19.096;2022-07-18T03:28:02;7.63;;;3.85;;
55493;SDS011;41355;50.390;19.096;2022-07-18T03:30:28;7.70;;;3.80;;
55493;SDS011;41355;50.390;19.096;2022-07-18T03:32:54;11.60;;;4.38;;
55493;SDS011;41355;50.390;19.096;2022-07-18T03:35:20;7.75;;;3.58;;
55493;SDS011;41355;50.390;19.096;2022-07-18T03:37:46;7.45;;;3.47;;
55493;SDS011;41355;50.390;19.096;2022-07-18T03:40:11;7.45;;;3.20;;
55493;SDS011;41355;50.390;19.096;2022-07-18T03:42:38;7.60;;;3.08;;
55493;SDS011;41355;50.390;19.096;2022-07-18T03:45:05;7.45;;;2.95;;
55493;SDS011;41355;50.390;19.096;2022-07-18T03:47:31;10.18;;;3.50;;
55493;SDS011;41355;50.390;19.096;2022-07-18T03:49:57;8.60;;;3.10;;
55493;SDS011;41355;50.390;19.096;2022-07-18T03:52:23;8.00;;;3.22;;
55493;SDS011;41355;50.390;19.096;2022-07-18T03:54:49;7.57;;;3.10;;
55493;SDS011;41355;50.390;19.096;2022-07-18T03:57:15;10.40;;;3.22;;
55493;SDS011;41355;50.390;19.096;2022-07-18T03:59:41;7.78;;;2.75;;
55493;SDS011;41355;50.390;19.096;2022-07-18T04:02:07;6.13;;;2.70;;
55493;SDS011;41355;50.390;19.096;2022-07-18T04:04:33;6.07;;;3.08;;
55493;SDS011;41355;50.390;19.096;2022-07-18T04:06:59;8.07;;;3.00;;
55493;SDS011;41355;50.390;19.096;2022-07-18T04:09:26;7.80;;;3.50;;
55493;SDS011;41355;50.390;19.096;2022-07-18T04:11:52;7.93;;;3.03;;
55493;SDS011;41355;50.390;19.096;2022-07-18T04:14:18;8.23;;;3.00;;
55493;SDS011;41355;50.390;19.096;2022-07-18T04:16:44;9.05;;;3.10;;
55493;SDS011;41355;50.390;19.096;2022-07-18T04:19:10;6.05;;;1.88;;
55493;SDS011;41355;50.390;19.096;2022-07-18T04:21:36;5.20;;;1.90;;
55493;SDS011;41355;50.390;19.096;2022-07-18T04:24:02;7.22;;;2.15;;
55493;SDS011;41355;50.390;19.096;2022-07-18T04:26:28;6.72;;;2.80;;
55493;SDS011;41355;50.390;19.096;2022-07-18T04:28:54;7.43;;;3.20;;
55493;SDS011;41355;50.390;19.096;2022-07-18T04:31:20;8.18;;;3.88;;
55493;SDS011;41355;50.390;19.096;2022-07-18T04:33:46;9.65;;;4.55;;
55493;SDS011;41355;50.390;19.096;2022-07-18T04:36:12;12.63;;;4.28;;
55493;SDS011;41355;50.390;19.096;2022-07-18T04:38:38;7.85;;;4.07;;
55493;SDS011;41355;50.390;19.096;2022-07-18T04:41:05;8.40;;;4.22;;
55493;SDS011;41355;50.390;19.096;2022-07-18T04:43:31;8.10;;;4.13;;
55493;SDS011;41355;50.390;19.096;2022-07-18T04:45:57;13.07;;;4.70;;
55493;SDS011;41355;50.390;19.096;2022-07-18T04:48:23;8.65;;;4.25;;
55493;SDS011;41355;50.390;19.096;2022-07-18T04:50:49;10.63;;;4.05;;
55493;SDS011;41355;50.390;19.096;2022-07-18T04:53:15;9.07;;;4.30;;
55493;SDS011;41355;50.390;19.096;2022-07-18T04:55:42;10.98;;;4.07;;
55493;SDS011;41355;50.390;19.096;2022-07-18T04:58:08;9.57;;;3.50;;
55493;SDS011;41355;50.390;19.096;2022-07-18T05:00:34;10.32;;;5.15;;
55493;SDS011;41355;50.390;19.096;2022-07-18T05:03:00;8.82;;;4.15;;
55493;SDS011;41355;50.390;19.096;2022-07-18T05:05:26;10.40;;;4.38;;
55493;SDS011;41355;50.390;19.096;2022-07-18T05:07:53;12.40;;;4.07;;
55493;SDS011;41355;50.390;19.096;2022-07-18T05:10:20;11.40;;;4.40;;
55493;SDS011;41355;50.390;19.096;2022-07-18T05:12:47;9.90;;;3.97;;
55493;SDS011;41355;50.390;19.096;2022-07-18T05:15:15;8.65;;;3.25;;
55493;SDS011;41355;50.390;19.096;2022-07-18T05:17:41;8.70;;;3.35;;
55493;SDS011;41355;50.390;19.096;2022-07-18T05:20:09;7.05;;;3.17;;
55493;SDS011;41355;50.390;19.096;2022-07-18T05:22:35;8.57;;;3.75;;
55493;SDS011;41355;50.390;19.096;2022-07-18T05:25:02;10.43;;;4.30;;
55493;SDS011;41355;50.390;19.096;2022-07-18T05:27:28;10.88;;;4.43;;
55493;SDS011;41355;50.390;19.096;2022-07-18T05:29:54;10.23;;;4.40;;
55493;SDS011;41355;50.390;19.096;2022-07-18T05:32:20;11.63;;;4.30;;
55493;SDS011;41355;50.390;19.096;2022-07-18T05:34:46;9.48;;;4.47;;
55493;SDS011;41355;50.390;19.096;2022-07-18T05:37:13;11.40;;;4.72;;
55493;SDS011;41355;50.390;19.096;2022-07-18T05:39:39;10.60;;;4.50;;
55493;SDS011;41355;50.390;19.096;2022-07-18T05:42:05;13.32;;;5.07;;
55493;SDS011;41355;50.390;19.096;2022-07-18T05:44:31;11.35;;;5.40;;
55493;SDS011;41355;50.390;19.096;2022-07-18T05:46:57;10.18;;;4.65;;
55493;SDS011;41355;50.390;19.096;2022-07-18T05:49:23;9.93;;;4.50;;
55493;SDS011;41355;50.390;19.096;2022-07-18T05:51:49;9.13;;;4.18;;
55493;SDS011;41355;50.390;19.096;2022-07-18T05:54:15;11.05;;;4.75;;
55493;SDS011;41355;50.390;19.096;2022-07-18T05:56:47;14.02;;;4.53;;
55493;SDS011;41355;50.390;19.096;2022-07-18T05:59:13;10.00;;;4.30;;
55493;SDS011;41355;50.390;19.096;2022-07-18T06:01:40;9.60;;;3.95;;
55493;SDS011;41355;50.390;19.096;2022-07-18T06:04:06;9.00;;;4.38;;
55493;SDS011;41355;50.390;19.096;2022-07-18T06:06:32;8.07;;;4.45;;
55493;SDS011;41355;50.390;19.096;2022-07-18T06:08:58;8.20;;;3.40;;
55493;SDS011;41355;50.390;19.096;2022-07-18T06:11:24;9.32;;;4.50;;
55493;SDS011;41355;50.390;19.096;2022-07-18T06:13:50;9.85;;;4.30;;
55493;SDS011;41355;50.390;19.096;2022-07-18T06:16:15;7.63;;;3.83;;
55493;SDS011;41355;50.390;19.096;2022-07-18T06:18:41;8.27;;;3.47;;
55493;SDS011;41355;50.390;19.096;2022-07-18T06:21:08;6.57;;;3.60;;
55493;SDS011;41355;50.390;19.096;2022-07-18T06:23:34;10.15;;;3.92;;
55493;SDS011;41355;50.390;19.096;2022-07-18T06:26:00;7.57;;;3.70;;
55493;SDS011;41355;50.390;19.096;2022-07-18T06:28:26;8.95;;;3.40;;
55493;SDS011;41355;50.390;19.096;2022-07-18T06:30:53;8.43;;;3.83;;
55493;SDS011;41355;50.390;19.096;2022-07-18T06:33:19;8.07;;;3.08;;
55493;SDS011;41355;50.390;19.096;2022-07-18T06:35:45;14.18;;;5.15;;
55493;SDS011;41355;50.390;19.096;2022-07-18T06:38:12;6.28;;;2.72;;
55493;SDS011;41355;50.390;19.096;2022-07-18T06:40:38;7.65;;;2.60;;
55493;SDS011;41355;50.390;19.096;2022-07-18T06:43:04;8.45;;;2.90;;
55493;SDS011;41355;50.390;19.096;2022-07-18T06:45:31;9.38;;;2.95;;
55493;SDS011;41355;50.390;19.096;2022-07-18T06:47:57;15.55;;;5.57;;
55493;SDS011;41355;50.390;19.096;2022-07-18T06:50:23;20.20;;;8.35;;
55493;SDS011;41355;50.390;19.096;2022-07-18T06:52:49;14.00;;;6.22;;
55493;SDS011;41355;50.390;19.096;2022-07-18T06:55:15;8.35;;;3.63;;
55493;SDS011;41355;50.390;19.096;2022-07-18T06:57:41;17.92;;;7.72;;
55493;SDS011;41355;50.390;19.096;2022-07-18T07:00:08;22.70;;;10.40;;
55493;SDS011;41355;50.390;19.096;2022-07-18T07:02:34;10.23;;;4.43;;
55493;SDS011;41355;50.390;19.096;2022-07-18T07:05:05;16.42;;;6.65;;
55493;SDS011;41355;50.390;19.096;2022-07-18T07:07:31;8.23;;;2.70;;
55493;SDS011;41355;50.390;19.096;2022-07-18T07:09:57;9.68;;;3.30;;
55493;SDS011;41355;50.390;19.096;2022-07-18T07:12:22;5.60;;;2.42;;
55493;SDS011;41355;50.390;19.096;2022-07-18T07:14:48;13.60;;;5.00;;
55493;SDS011;41355;50.390;19.096;2022-07-18T07:17:14;14.43;;;5.05;;
55493;SDS011;41355;50.390;19.096;2022-07-18T07:19:40;13.80;;;5.15;;
55493;SDS011;41355;50.390;19.096;2022-07-18T07:22:06;13.05;;;3.80;;
55493;SDS011;41355;50.390;19.096;2022-07-18T07:24:32;6.60;;;2.53;;
55493;SDS011;41355;50.390;19.096;2022-07-18T07:26:58;9.02;;;3.00;;
55493;SDS011;41355;50.390;19.096;2022-07-18T07:29:25;10.73;;;4.05;;
55493;SDS011;41355;50.390;19.096;2022-07-18T07:31:51;8.38;;;2.50;;
55493;SDS011;41355;50.390;19.096;2022-07-18T07:34:17;14.55;;;4.85;;
55493;SDS011;41355;50.390;19.096;2022-07-18T07:36:43;7.25;;;2.95;;
55493;SDS011;41355;50.390;19.096;2022-07-18T07:39:09;10.68;;;4.05;;
55493;SDS011;41355;50.390;19.096;2022-07-18T07:41:35;8.45;;;2.20;;
55493;SDS011;41355;50.390;19.096;2022-07-18T07:44:01;4.65;;;1.73;;
55493;SDS011;41355;50.390;19.096;2022-07-18T07:46:27;6.95;;;2.10;;
55493;SDS011;41355;50.390;19.096;2022-07-18T07:48:53;4.18;;;1.60;;
55493;SDS011;41355;50.390;19.096;2022-07-18T07:51:19;4.82;;;1.30;;
55493;SDS011;41355;50.390;19.096;2022-07-18T07:53:45;6.25;;;2.08;;
55493;SDS011;41355;50.390;19.096;2022-07-18T07:56:11;5.25;;;1.70;;
55493;SDS011;41355;50.390;19.096;2022-07-18T07:58:37;6.60;;;1.77;;
55493;SDS011;41355;50.390;19.096;2022-07-18T08:01:03;5.75;;;1.50;;
55493;SDS011;41355;50.390;19.096;2022-07-18T08:03:29;4.53;;;1.30;;
55493;SDS011;41355;50.390;19.096;2022-07-18T08:05:56;2.55;;;1.00;;
55493;SDS011;41355;50.390;19.096;2022-07-18T08:08:22;4.70;;;1.33;;
55493;SDS011;41355;50.390;19.096;2022-07-18T08:10:50;4.15;;;1.30;;
55493;SDS011;41355;50.390;19.096;2022-07-18T08:13:18;4.78;;;1.20;;
55493;SDS011;41355;50.390;19.096;2022-07-18T08:15:44;4.95;;;1.30;;
55493;SDS011;41355;50.390;19.096;2022-07-18T08:18:10;14.80;;;5.43;;
55493;SDS011;41355;50.390;19.096;2022-07-18T08:20:36;6.70;;;2.20;;
55493;SDS011;41355;50.390;19.096;2022-07-18T08:23:04;5.50;;;2.17;;
55493;SDS011;41355;50.390;19.096;2022-07-18T08:25:31;7.80;;;2.38;;
55493;SDS011;41355;50.390;19.096;2022-07-18T08:27:58;6.40;;;2.20;;
55493;SDS011;41355;50.390;19.096;2022-07-18T08:30:24;4.60;;;1.17;;
55493;SDS011;41355;50.390;19.096;2022-07-18T08:32:50;10.10;;;3.42;;
55493;SDS011;41355;50.390;19.096;2022-07-18T08:35:16;8.07;;;2.15;;
55493;SDS011;41355;50.390;19.096;2022-07-18T08:37:42;5.15;;;2.00;;
55493;SDS011;41355;50.390;19.096;2022-07-18T08:40:09;4.00;;;1.20;;
55493;SDS011;41355;50.390;19.096;2022-07-18T08:42:35;4.32;;;1.50;;
55493;SDS011;41355;50.390;19.096;2022-07-18T08:45:02;4.90;;;1.40;;
55493;SDS011;41355;50.390;19.096;2022-07-18T08:47:28;2.25;;;0.90;;
55493;SDS011;41355;50.390;19.096;2022-07-18T08:49:54;3.47;;;1.20;;
55493;SDS011;41355;50.390;19.096;2022-07-18T08:52:20;2.53;;;0.93;;
55493;SDS011;41355;50.390;19.096;2022-07-18T08:54:46;7.05;;;1.80;;
55493;SDS011;41355;50.390;19.096;2022-07-18T08:57:14;4.30;;;1.65;;
55493;SDS011;41355;50.390;19.096;2022-07-18T08:59:40;4.50;;;1.30;;
55493;SDS011;41355;50.390;19.096;2022-07-18T09:02:06;4.43;;;1.00;;
55493;SDS011;41355;50.390;19.096;2022-07-18T09:04:42;4.18;;;1.38;;
55493;SDS011;41355;50.390;19.096;2022-07-18T09:07:09;3.10;;;1.10;;
55493;SDS011;41355;50.390;19.096;2022-07-18T09:09:36;3.65;;;1.08;;
55493;SDS011;41355;50.390;19.096;2022-07-18T09:14:33;4.70;;;1.10;;
55493;SDS011;41355;50.390;19.096;2022-07-18T09:17:03;4.97;;;1.30;;
55493;SDS011;41355;50.390;19.096;2022-07-18T09:19:29;5.20;;;1.20;;
55493;SDS011;41355;50.390;19.096;2022-07-18T09:22:10;3.28;;;1.08;;
55493;SDS011;41355;50.390;19.096;2022-07-18T09:24:57;4.90;;;1.25;;
55493;SDS011;41355;50.390;19.096;2022-07-18T09:30:06;3.15;;;1.17;;
55493;SDS011;41355;50.390;19.096;2022-07-18T09:32:32;5.20;;;1.25;;
55493;SDS011;41355;50.390;19.096;2022-07-18T09:35:04;3.00;;;1.08;;
55493;SDS011;41355;50.390;19.096;2022-07-18T09:37:30;2.97;;;1.08;;
55493;SDS011;41355;50.390;19.096;2022-07-18T09:40:17;9.13;;;1.40;;
55493;SDS011;41355;50.390;19.096;2022-07-18T09:42:42;5.32;;;1.27;;
55493;SDS011;41355;50.390;19.096;2022-07-18T09:45:08;4.57;;;1.35;;
55493;SDS011;41355;50.390;19.096;2022-07-18T09:47:48;5.78;;;1.27;;
55493;SDS011;41355;50.390;19.096;2022-07-18T09:50:22;3.83;;;1.30;;
55493;SDS011;41355;50.390;19.096;2022-07-18T09:52:55;3.50;;;1.10;;
55493;SDS011;41355;50.390;19.096;2022-07-18T09:55:21;3.70;;;1.10;;
55493;SDS011;41355;50.390;19.096;2022-07-18T09:58:00;2.70;;;0.95;;
55493;SDS011;41355;50.390;19.096;2022-07-18T10:00:30;5.40;;;1.25;;
55493;SDS011;41355;50.390;19.096;2022-07-18T10:02:56;3.88;;;1.30;;
55493;SDS011;41355;50.390;19.096;2022-07-18T10:05:24;2.67;;;1.13;;
55493;SDS011;41355;50.390;19.096;2022-07-18T10:07:50;3.85;;;1.10;;
55493;SDS011;41355;50.390;19.096;2022-07-18T10:10:16;4.30;;;1.27;;
55493;SDS011;41355;50.390;19.096;2022-07-18T10:12:43;4.10;;;1.20;;
55493;SDS011;41355;50.390;19.096;2022-07-18T10:15:09;4.38;;;1.20;;
55493;SDS011;41355;50.390;19.096;2022-07-18T10:17:35;4.18;;;1.17;;
55493;SDS011;41355;50.390;19.096;2022-07-18T10:20:04;4.13;;;1.30;;
55493;SDS011;41355;50.390;19.096;2022-07-18T10:22:35;4.22;;;1.10;;
55493;SDS011;41355;50.390;19.096;2022-07-18T10:25:03;4.25;;;1.23;;
55493;SDS011;41355;50.390;19.096;2022-07-18T10:27:31;4.55;;;1.23;;
55493;SDS011;41355;50.390;19.096;2022-07-18T10:30:13;3.37;;;1.10;;
55493;SDS011;41355;50.390;19.096;2022-07-18T10:32:39;3.70;;;1.10;;
55493;SDS011;41355;50.390;19.096;2022-07-18T10:35:06;5.28;;;1.25;;
55493;SDS011;41355;50.390;19.096;2022-07-18T10:37:34;2.95;;;1.20;;
55493;SDS011;41355;50.390;19.096;2022-07-18T10:42:45;4.57;;;1.25;;
55493;SDS011;41355;50.390;19.096;2022-07-18T10:47:56;4.68;;;1.20;;
55493;SDS011;41355;50.390;19.096;2022-07-18T10:50:22;5.10;;;1.20;;
55493;SDS011;41355;50.390;19.096;2022-07-18T11:03:06;6.50;;;1.50;;
55493;SDS011;41355;50.390;19.096;2022-07-18T11:15:57;4.53;;;1.30;;
55493;SDS011;41355;50.390;19.096;2022-07-18T11:18:24;3.40;;;1.20;;
55493;SDS011;41355;50.390;19.096;2022-07-18T11:20:51;3.75;;;1.10;;
55493;SDS011;41355;50.390;19.096;2022-07-18T11:23:24;7.53;;;1.20;;
55493;SDS011;41355;50.390;19.096;2022-07-18T11:25:52;4.32;;;1.30;;
55493;SDS011;41355;50.390;19.096;2022-07-18T11:28:20;4.63;;;1.30;;
55493;SDS011;41355;50.390;19.096;2022-07-18T11:30:46;6.80;;;1.35;;
55493;SDS011;41355;50.390;19.096;2022-07-18T11:33:24;4.22;;;1.17;;
55493;SDS011;41355;50.390;19.096;2022-07-18T11:35:51;3.53;;;1.17;;
55493;SDS011;41355;50.390;19.096;2022-07-18T11:38:17;4.28;;;1.20;;
55493;SDS011;41355;50.390;19.096;2022-07-18T11:40:52;4.07;;;1.10;;
55493;SDS011;41355;50.390;19.096;2022-07-18T11:43:21;5.75;;;1.58;;
55493;SDS011;41355;50.390;19.096;2022-07-18T11:45:48;3.80;;;1.00;;
55493;SDS011;41355;50.390;19.096;2022-07-18T11:48:20;4.65;;;1.02;;
55493;SDS011;41355;50.390;19.096;2022-07-18T11:50:47;2.58;;;1.00;;
55493;SDS011;41355;50.390;19.096;2022-07-18T11:53:13;3.53;;;1.00;;
55493;SDS011;41355;50.390;19.096;2022-07-18T11:55:40;5.03;;;1.60;;
55493;SDS011;41355;50.390;19.096;2022-07-18T11:58:13;3.45;;;0.90;;
55493;SDS011;41355;50.390;19.096;2022-07-18T12:00:40;4.03;;;1.05;;
55493;SDS011;41355;50.390;19.096;2022-07-18T12:03:19;4.65;;;1.10;;
55493;SDS011;41355;50.390;19.096;2022-07-18T12:05:48;3.20;;;0.98;;
55493;SDS011;41355;50.390;19.096;2022-07-18T12:08:25;3.45;;;1.20;;
55493;SDS011;41355;50.390;19.096;2022-07-18T12:11:11;3.83;;;1.10;;
55493;SDS011;41355;50.390;19.096;2022-07-18T12:16:06;5.13;;;1.55;;
55493;SDS011;41355;50.390;19.096;2022-07-18T12:18:32;4.38;;;1.83;;
55493;SDS011;41355;50.390;19.096;2022-07-18T12:21:08;2.17;;;0.90;;
55493;SDS011;41355;50.390;19.096;2022-07-18T12:23:34;4.50;;;1.00;;
55493;SDS011;41355;50.390;19.096;2022-07-18T12:26:00;2.72;;;1.20;;
55493;SDS011;41355;50.390;19.096;2022-07-18T12:28:27;2.60;;;1.08;;
55493;SDS011;41355;50.390;19.096;2022-07-18T12:30:53;3.00;;;1.20;;
55493;SDS011;41355;50.390;19.096;2022-07-18T12:33:19;4.05;;;1.20;;
55493;SDS011;41355;50.390;19.096;2022-07-18T12:35:47;4.97;;;1.52;;
55493;SDS011;41355;50.390;19.096;2022-07-18T12:38:19;2.80;;;1.00;;
55493;SDS011;41355;50.390;19.096;2022-07-18T12:40:55;5.65;;;1.10;;
55493;SDS011;41355;50.390;19.096;2022-07-18T12:43:29;2.85;;;1.15;;
55493;SDS011;41355;50.390;19.096;2022-07-18T12:45:56;2.15;;;1.00;;
55493;SDS011;41355;50.390;19.096;2022-07-18T12:48:22;3.15;;;1.05;;
55493;SDS011;41355;50.390;19.096;2022-07-18T12:50:55;2.38;;;0.90;;
55493;SDS011;41355;50.390;19.096;2022-07-18T12:53:22;4.53;;;1.10;;
55493;SDS011;41355;50.390;19.096;2022-07-18T12:55:48;2.83;;;1.10;;
55493;SDS011;41355;50.390;19.096;2022-07-18T12:58:14;6.25;;;1.13;;
55493;SDS011;41355;50.390;19.096;2022-07-18T13:00:40;3.22;;;1.10;;
55493;SDS011;41355;50.390;19.096;2022-07-18T13:03:06;2.53;;;1.00;;
55493;SDS011;41355;50.390;19.096;2022-07-18T13:05:32;3.95;;;1.02;;
55493;SDS011;41355;50.390;19.096;2022-07-18T13:07:58;3.10;;;1.20;;
55493;SDS011;41355;50.390;19.096;2022-07-18T13:10:24;3.35;;;1.20;;
55493;SDS011;41355;50.390;19.096;2022-07-18T13:12:50;2.95;;;1.13;;
55493;SDS011;41355;50.390;19.096;2022-07-18T13:15:16;3.63;;;1.20;;
55493;SDS011;41355;50.390;19.096;2022-07-18T13:17:45;3.40;;;1.25;;
55493;SDS011;41355;50.390;19.096;2022-07-18T13:20:11;3.55;;;1.10;;
55493;SDS011;41355;50.390;19.096;2022-07-18T13:22:37;5.32;;;1.35;;
55493;SDS011;41355;50.390;19.096;2022-07-18T13:25:04;4.80;;;1.27;;
55493;SDS011;41355;50.390;19.096;2022-07-18T13:27:31;3.78;;;1.10;;
55493;SDS011;41355;50.390;19.096;2022-07-18T13:29:57;2.92;;;1.10;;
55493;SDS011;41355;50.390;19.096;2022-07-18T13:32:23;4.00;;;1.00;;
55493;SDS011;41355;50.390;19.096;2022-07-18T13:34:49;3.15;;;0.90;;
55493;SDS011;41355;50.390;19.096;2022-07-18T13:37:14;2.83;;;1.00;;
55493;SDS011;41355;50.390;19.096;2022-07-18T13:39:40;2.97;;;1.10;;
55493;SDS011;41355;50.390;19.096;2022-07-18T13:42:06;3.60;;;1.40;;
55493;SDS011;41355;50.390;19.096;2022-07-18T13:44:32;4.50;;;1.17;;
55493;SDS011;41355;50.390;19.096;2022-07-18T13:46:58;2.60;;;1.00;;
55493;SDS011;41355;50.390;19.096;2022-07-18T13:49:24;2.67;;;1.10;;
55493;SDS011;41355;50.390;19.096;2022-07-18T13:51:50;4.65;;;1.10;;
55493;SDS011;41355;50.390;19.096;2022-07-18T13:54:16;3.35;;;1.02;;
55493;SDS011;41355;50.390;19.096;2022-07-18T13:56:43;3.63;;;1.10;;
55493;SDS011;41355;50.390;19.096;2022-07-18T13:59:09;2.88;;;1.02;;
55493;SDS011;41355;50.390;19.096;2022-07-18T14:01:35;3.25;;;1.20;;
55493;SDS011;41355;50.390;19.096;2022-07-18T14:04:01;4.03;;;1.25;;
55493;SDS011;41355;50.390;19.096;2022-07-18T14:06:28;3.90;;;1.20;;
55493;SDS011;41355;50.390;19.096;2022-07-18T14:08:54;2.47;;;1.00;;
55493;SDS011;41355;50.390;19.096;2022-07-18T14:11:20;3.40;;;1.08;;
55493;SDS011;41355;50.390;19.096;2022-07-18T14:13:46;2.22;;;1.00;;
55493;SDS011;41355;50.390;19.096;2022-07-18T14:16:12;2.95;;;1.10;;
55493;SDS011;41355;50.390;19.096;2022-07-18T14:18:38;3.42;;;1.20;;
55493;SDS011;41355;50.390;19.096;2022-07-18T14:21:04;3.13;;;1.10;;
55493;SDS011;41355;50.390;19.096;2022-07-18T14:23:31;6.20;;;1.38;;
55493;SDS011;41355;50.390;19.096;2022-07-18T14:25:57;3.45;;;1.13;;
55493;SDS011;41355;50.390;19.096;2022-07-18T14:28:23;2.75;;;1.08;;
55493;SDS011;41355;50.390;19.096;2022-07-18T14:30:49;3.80;;;1.30;;
55493;SDS011;41355;50.390;19.096;2022-07-18T14:33:15;3.35;;;1.30;;
55493;SDS011;41355;50.390;19.096;2022-07-18T14:35:41;3.88;;;1.20;;
55493;SDS011;41355;50.390;19.096;2022-07-18T14:38:07;3.85;;;1.10;;
55493;SDS011;41355;50.390;19.096;2022-07-18T14:40:33;6.07;;;1.20;;
55493;SDS011;41355;50.390;19.096;2022-07-18T14:42:59;3.28;;;1.27;;
55493;SDS011;41355;50.390;19.096;2022-07-18T14:45:25;2.45;;;1.15;;
55493;SDS011;41355;50.390;19.096;2022-07-18T14:47:51;4.00;;;1.60;;
55493;SDS011;41355;50.390;19.096;2022-07-18T14:50:17;2.80;;;1.27;;
55493;SDS011;41355;50.390;19.096;2022-07-18T14:52:43;3.72;;;1.15;;
55493;SDS011;41355;50.390;19.096;2022-07-18T14:55:09;2.83;;;1.27;;
55493;SDS011;41355;50.390;19.096;2022-07-18T14:57:35;4.30;;;1.10;;
55493;SDS011;41355;50.390;19.096;2022-07-18T15:00:03;4.53;;;1.67;;
55493;SDS011;41355;50.390;19.096;2022-07-18T15:02:29;4.80;;;1.15;;
55493;SDS011;41355;50.390;19.096;2022-07-18T15:04:55;3.95;;;1.30;;